sensor_id;sensor_type;location;lat;lon;timestamp;P1;durP1;ratioP1;P2;durP2;ratioP2
47790;SDS011;33547;49.044;1.156;2022-12-18T01:24:32;59.05;;;33.67;;
47790;SDS011;33547;49.044;1.156;2022-12-18T02:34:14;57.03;;;30.27;;
47790;SDS011;33547;49.044;1.156;2022-12-18T03:08:53;61.10;;;32.17;;
47790;SDS011;33547;49.044;1.156;2022-12-18T03:55:25;53.00;;;28.85;;
47790;SDS011;33547;49.044;1.156;2022-12-18T04:18:07;51.00;;;27.80;;
47790;SDS011;33547;49.044;1.156;2022-12-18T04:21:45;48.97;;;27.05;;
47790;SDS011;33547;49.044;1.156;2022-12-18T05:09:59;48.53;;;27.25;;
47790;SDS011;33547;49.044;1.156;2022-12-18T05:27:53;51.10;;;29.10;;
47790;SDS011;33547;49.044;1.156;2022-12-18T05:32:00;46.67;;;27.30;;
47790;SDS011;33547;49.044;1.156;2022-12-18T05:46:04;51.00;;;29.20;;
47790;SDS011;33547;49.044;1.156;2022-12-18T06:18:24;41.70;;;26.50;;
47790;SDS011;33547;49.044;1.156;2022-12-18T07:05:39;48.75;;;28.98;;
47790;SDS011;33547;49.044;1.156;2022-12-18T07:09:39;46.75;;;28.30;;
47790;SDS011;33547;49.044;1.156;2022-12-18T07:40:01;46.60;;;27.23;;
47790;SDS011;33547;49.044;1.156;2022-12-18T08:02:24;48.53;;;28.88;;
47790;SDS011;33547;49.044;1.156;2022-12-18T08:06:10;51.13;;;28.17;;
47790;SDS011;33547;49.044;1.156;2022-12-18T08:24:57;51.75;;;29.55;;
47790;SDS011;33547;49.044;1.156;2022-12-18T08:28:19;49.22;;;28.98;;
47790;SDS011;33547;49.044;1.156;2022-12-18T08:46:33;46.40;;;27.90;;
47790;SDS011;33547;49.044;1.156;2022-12-18T08:58:41;44.97;;;27.45;;
47790;SDS011;33547;49.044;1.156;2022-12-18T09:04:21;44.35;;;28.25;;
47790;SDS011;33547;49.044;1.156;2022-12-18T09:07:08;46.72;;;28.85;;
47790;SDS011;33547;49.044;1.156;2022-12-18T09:09:55;43.58;;;29.58;;
47790;SDS011;33547;49.044;1.156;2022-12-18T09:12:46;43.72;;;28.08;;
47790;SDS011;33547;49.044;1.156;2022-12-18T09:15:40;44.65;;;29.67;;
47790;SDS011;33547;49.044;1.156;2022-12-18T09:18:22;45.85;;;26.85;;
47790;SDS011;33547;49.044;1.156;2022-12-18T09:32:36;47.85;;;29.27;;
47790;SDS011;33547;49.044;1.156;2022-12-18T09:44:17;49.03;;;28.85;;
47790;SDS011;33547;49.044;1.156;2022-12-18T09:47:37;44.75;;;27.60;;
47790;SDS011;33547;49.044;1.156;2022-12-18T09:54:56;51.03;;;29.35;;
47790;SDS011;33547;49.044;1.156;2022-12-18T10:32:48;55.10;;;32.10;;
47790;SDS011;33547;49.044;1.156;2022-12-18T10:47:11;46.30;;;28.38;;
47790;SDS011;33547;49.044;1.156;2022-12-18T11:10:13;43.30;;;26.92;;
47790;SDS011;33547;49.044;1.156;2022-12-18T11:13:38;38.67;;;25.08;;
47790;SDS011;33547;49.044;1.156;2022-12-18T11:23:51;40.95;;;26.70;;
47790;SDS011;33547;49.044;1.156;2022-12-18T11:30:24;40.53;;;27.23;;
47790;SDS011;33547;49.044;1.156;2022-12-18T11:33:13;38.33;;;26.00;;
47790;SDS011;33547;49.044;1.156;2022-12-18T11:35:50;41.45;;;26.65;;
47790;SDS011;33547;49.044;1.156;2022-12-18T11:38:34;40.00;;;26.63;;
47790;SDS011;33547;49.044;1.156;2022-12-18T11:41:09;38.08;;;26.80;;
47790;SDS011;33547;49.044;1.156;2022-12-18T11:44:10;41.70;;;26.83;;
47790;SDS011;33547;49.044;1.156;2022-12-18T11:46:55;40.13;;;26.35;;
47790;SDS011;33547;49.044;1.156;2022-12-18T11:49:35;41.45;;;28.05;;
47790;SDS011;33547;49.044;1.156;2022-12-18T11:52:09;38.38;;;26.27;;
47790;SDS011;33547;49.044;1.156;2022-12-18T11:54:46;38.92;;;26.63;;
47790;SDS011;33547;49.044;1.156;2022-12-18T12:00:25;38.63;;;27.08;;
47790;SDS011;33547;49.044;1.156;2022-12-18T12:06:01;38.83;;;27.15;;
47790;SDS011;33547;49.044;1.156;2022-12-18T12:39:35;37.05;;;25.50;;
47790;SDS011;33547;49.044;1.156;2022-12-18T12:42:05;42.97;;;28.63;;
47790;SDS011;33547;49.044;1.156;2022-12-18T12:45:06;35.63;;;24.90;;
47790;SDS011;33547;49.044;1.156;2022-12-18T12:47:47;41.50;;;26.08;;
47790;SDS011;33547;49.044;1.156;2022-12-18T12:50:18;44.80;;;29.48;;
47790;SDS011;33547;49.044;1.156;2022-12-18T12:52:50;36.08;;;25.52;;
47790;SDS011;33547;49.044;1.156;2022-12-18T12:55:21;36.00;;;24.45;;
47790;SDS011;33547;49.044;1.156;2022-12-18T12:57:58;35.72;;;24.95;;
47790;SDS011;33547;49.044;1.156;2022-12-18T13:00:51;36.88;;;26.23;;
47790;SDS011;33547;49.044;1.156;2022-12-18T13:09:24;36.88;;;24.77;;
47790;SDS011;33547;49.044;1.156;2022-12-18T13:11:49;37.25;;;26.38;;
47790;SDS011;33547;49.044;1.156;2022-12-18T13:14:35;40.72;;;29.17;;
47790;SDS011;33547;49.044;1.156;2022-12-18T13:20:04;33.05;;;24.42;;
47790;SDS011;33547;49.044;1.156;2022-12-18T13:22:37;33.13;;;24.00;;
47790;SDS011;33547;49.044;1.156;2022-12-18T13:35:50;37.33;;;27.15;;
47790;SDS011;33547;49.044;1.156;2022-12-18T13:40:56;32.28;;;24.20;;
47790;SDS011;33547;49.044;1.156;2022-12-18T13:43:28;29.13;;;23.08;;
47790;SDS011;33547;49.044;1.156;2022-12-18T13:45:59;34.33;;;24.00;;
47790;SDS011;33547;49.044;1.156;2022-12-18T13:48:26;32.72;;;22.38;;
47790;SDS011;33547;49.044;1.156;2022-12-18T13:50:55;33.85;;;24.75;;
47790;SDS011;33547;49.044;1.156;2022-12-18T13:53:39;36.60;;;24.35;;
47790;SDS011;33547;49.044;1.156;2022-12-18T13:56:15;31.33;;;23.20;;
47790;SDS011;33547;49.044;1.156;2022-12-18T13:58:42;29.60;;;22.75;;
47790;SDS011;33547;49.044;1.156;2022-12-18T14:01:24;33.80;;;24.38;;
47790;SDS011;33547;49.044;1.156;2022-12-18T14:03:50;32.47;;;21.90;;
47790;SDS011;33547;49.044;1.156;2022-12-18T14:06:15;34.95;;;24.10;;
47790;SDS011;33547;49.044;1.156;2022-12-18T14:08:42;34.05;;;22.98;;
47790;SDS011;33547;49.044;1.156;2022-12-18T14:11:17;35.85;;;25.27;;
47790;SDS011;33547;49.044;1.156;2022-12-18T14:13:47;34.95;;;24.75;;
47790;SDS011;33547;49.044;1.156;2022-12-18T14:16:16;34.95;;;26.05;;
47790;SDS011;33547;49.044;1.156;2022-12-18T14:18:53;35.65;;;25.90;;
47790;SDS011;33547;49.044;1.156;2022-12-18T14:21:22;35.05;;;25.13;;
47790;SDS011;33547;49.044;1.156;2022-12-18T14:26:39;44.67;;;30.02;;
47790;SDS011;33547;49.044;1.156;2022-12-18T14:34:43;44.67;;;30.45;;
47790;SDS011;33547;49.044;1.156;2022-12-18T14:37:16;42.75;;;29.30;;
47790;SDS011;33547;49.044;1.156;2022-12-18T14:39:53;44.33;;;30.90;;
47790;SDS011;33547;49.044;1.156;2022-12-18T14:42:23;48.78;;;31.92;;
47790;SDS011;33547;49.044;1.156;2022-12-18T14:45:31;44.75;;;29.15;;
47790;SDS011;33547;49.044;1.156;2022-12-18T14:47:58;51.20;;;31.73;;
47790;SDS011;33547;49.044;1.156;2022-12-18T14:50:36;48.42;;;33.55;;
47790;SDS011;33547;49.044;1.156;2022-12-18T14:53:02;48.55;;;31.50;;
47790;SDS011;33547;49.044;1.156;2022-12-18T14:55:28;48.10;;;31.95;;
47790;SDS011;33547;49.044;1.156;2022-12-18T14:57:55;49.53;;;30.38;;
47790;SDS011;33547;49.044;1.156;2022-12-18T15:00:23;52.28;;;32.40;;
47790;SDS011;33547;49.044;1.156;2022-12-18T15:02:54;48.75;;;30.58;;
47790;SDS011;33547;49.044;1.156;2022-12-18T15:05:28;46.88;;;32.05;;
47790;SDS011;33547;49.044;1.156;2022-12-18T15:07:57;47.27;;;31.20;;
47790;SDS011;33547;49.044;1.156;2022-12-18T15:10:32;45.80;;;30.53;;
47790;SDS011;33547;49.044;1.156;2022-12-18T15:20:54;53.47;;;32.30;;
47790;SDS011;33547;49.044;1.156;2022-12-18T15:28:35;54.47;;;33.78;;
47790;SDS011;33547;49.044;1.156;2022-12-18T15:33:59;89.83;;;37.60;;
47790;SDS011;33547;49.044;1.156;2022-12-18T15:36:37;67.63;;;37.97;;
47790;SDS011;33547;49.044;1.156;2022-12-18T15:39:04;62.33;;;34.38;;
47790;SDS011;33547;49.044;1.156;2022-12-18T15:41:31;48.95;;;30.70;;
47790;SDS011;33547;49.044;1.156;2022-12-18T15:43:59;64.28;;;35.50;;
47790;SDS011;33547;49.044;1.156;2022-12-18T15:46:25;56.20;;;33.10;;
47790;SDS011;33547;49.044;1.156;2022-12-18T15:48:55;55.20;;;33.90;;
47790;SDS011;33547;49.044;1.156;2022-12-18T15:51:33;52.53;;;33.65;;
47790;SDS011;33547;49.044;1.156;2022-12-18T15:54:02;54.53;;;33.72;;
47790;SDS011;33547;49.044;1.156;2022-12-18T15:56:30;60.53;;;36.55;;
47790;SDS011;33547;49.044;1.156;2022-12-18T15:59:19;62.67;;;35.20;;
47790;SDS011;33547;49.044;1.156;2022-12-18T16:01:46;54.67;;;32.90;;
47790;SDS011;33547;49.044;1.156;2022-12-18T16:04:18;46.63;;;31.38;;
47790;SDS011;33547;49.044;1.156;2022-12-18T16:06:45;55.33;;;34.05;;
47790;SDS011;33547;49.044;1.156;2022-12-18T16:09:12;54.38;;;33.20;;
47790;SDS011;33547;49.044;1.156;2022-12-18T16:11:39;56.33;;;35.08;;
47790;SDS011;33547;49.044;1.156;2022-12-18T16:16:53;51.55;;;31.35;;
47790;SDS011;33547;49.044;1.156;2022-12-18T16:19:25;58.28;;;33.10;;
47790;SDS011;33547;49.044;1.156;2022-12-18T16:21:52;54.00;;;32.80;;
47790;SDS011;33547;49.044;1.156;2022-12-18T16:24:21;58.00;;;35.33;;
47790;SDS011;33547;49.044;1.156;2022-12-18T16:26:53;43.15;;;26.50;;
47790;SDS011;33547;49.044;1.156;2022-12-18T16:29:20;53.67;;;33.85;;
47790;SDS011;33547;49.044;1.156;2022-12-18T16:31:50;52.40;;;32.58;;
47790;SDS011;33547;49.044;1.156;2022-12-18T16:34:20;51.33;;;32.50;;
47790;SDS011;33547;49.044;1.156;2022-12-18T16:36:54;56.55;;;37.08;;
47790;SDS011;33547;49.044;1.156;2022-12-18T16:39:21;55.58;;;31.55;;
47790;SDS011;33547;49.044;1.156;2022-12-18T16:41:47;50.65;;;33.05;;
47790;SDS011;33547;49.044;1.156;2022-12-18T16:44:14;48.85;;;31.83;;
47790;SDS011;33547;49.044;1.156;2022-12-18T16:46:40;62.78;;;35.95;;
47790;SDS011;33547;49.044;1.156;2022-12-18T16:49:15;55.40;;;33.78;;
47790;SDS011;33547;49.044;1.156;2022-12-18T16:51:42;44.80;;;28.27;;
47790;SDS011;33547;49.044;1.156;2022-12-18T16:54:09;49.17;;;29.30;;
47790;SDS011;33547;49.044;1.156;2022-12-18T16:56:35;44.92;;;28.67;;
47790;SDS011;33547;49.044;1.156;2022-12-18T16:59:02;56.08;;;34.83;;
47790;SDS011;33547;49.044;1.156;2022-12-18T17:01:28;53.70;;;33.88;;
47790;SDS011;33547;49.044;1.156;2022-12-18T17:03:56;51.05;;;32.40;;
47790;SDS011;33547;49.044;1.156;2022-12-18T17:06:26;48.08;;;30.02;;
47790;SDS011;33547;49.044;1.156;2022-12-18T17:08:57;53.17;;;33.08;;
47790;SDS011;33547;49.044;1.156;2022-12-18T17:11:33;45.65;;;31.08;;
47790;SDS011;33547;49.044;1.156;2022-12-18T17:14:11;52.90;;;32.10;;
47790;SDS011;33547;49.044;1.156;2022-12-18T17:16:40;42.95;;;29.52;;
47790;SDS011;33547;49.044;1.156;2022-12-18T17:19:06;53.17;;;30.98;;
47790;SDS011;33547;49.044;1.156;2022-12-18T17:21:32;49.90;;;31.55;;
47790;SDS011;33547;49.044;1.156;2022-12-18T17:23:59;49.83;;;30.38;;
47790;SDS011;33547;49.044;1.156;2022-12-18T17:26:26;62.40;;;39.65;;
47790;SDS011;33547;49.044;1.156;2022-12-18T17:28:54;52.25;;;33.67;;
47790;SDS011;33547;49.044;1.156;2022-12-18T17:31:22;51.85;;;32.47;;
47790;SDS011;33547;49.044;1.156;2022-12-18T17:33:50;58.55;;;33.25;;
47790;SDS011;33547;49.044;1.156;2022-12-18T17:36:20;63.63;;;35.33;;
47790;SDS011;33547;49.044;1.156;2022-12-18T17:38:56;50.35;;;31.38;;
47790;SDS011;33547;49.044;1.156;2022-12-18T17:41:24;63.33;;;36.58;;
47790;SDS011;33547;49.044;1.156;2022-12-18T17:43:53;51.72;;;31.05;;
47790;SDS011;33547;49.044;1.156;2022-12-18T17:46:21;45.45;;;29.63;;
47790;SDS011;33547;49.044;1.156;2022-12-18T17:48:48;39.13;;;26.83;;
47790;SDS011;33547;49.044;1.156;2022-12-18T17:51:14;48.72;;;29.98;;
47790;SDS011;33547;49.044;1.156;2022-12-18T17:53:41;44.03;;;28.30;;
47790;SDS011;33547;49.044;1.156;2022-12-18T17:56:08;43.17;;;28.25;;
47790;SDS011;33547;49.044;1.156;2022-12-18T17:58:40;51.75;;;29.80;;
47790;SDS011;33547;49.044;1.156;2022-12-18T18:01:12;48.53;;;30.25;;
47790;SDS011;33547;49.044;1.156;2022-12-18T18:03:41;38.72;;;27.60;;
47790;SDS011;33547;49.044;1.156;2022-12-18T18:06:08;49.22;;;30.65;;
47790;SDS011;33547;49.044;1.156;2022-12-18T18:08:34;43.05;;;28.38;;
47790;SDS011;33547;49.044;1.156;2022-12-18T18:11:04;57.20;;;34.33;;
47790;SDS011;33547;49.044;1.156;2022-12-18T18:13:58;44.67;;;29.65;;
47790;SDS011;33547;49.044;1.156;2022-12-18T18:16:37;47.45;;;29.92;;
